Time;durP1;ratioP1;P1;durP2;ratioP2;P2;SDS_P1;SDS_P2;PMS_P1;PMS_P2;Temp;Humidity;BMP_temperature;BMP_pressure;BME280_temperature;BME280_humidity;BME280_pressure;Samples;Min_cycle;Max_cycle;Signal;HPM_P1;HPM_P2
2020/12/29 00:00:51;;;;;;;10.23;5.70;;;;;;;2.97;100.00;96971.72;5071644;28;20441;-67
2020/12/29 00:03:34;;;;;;;8.30;6.20;;;;;;;2.98;100.00;96975.13;5070975;28;20074;-66
2020/12/29 00:06:18;;;;;;;5.93;3.35;;;;;;;2.99;100.00;96980.25;5072363;28;20102;-66
2020/12/29 00:09:02;;;;;;;4.10;3.20;;;;;;;2.99;100.00;96979.41;5071286;28;20067;-66
2020/12/29 00:11:47;;;;;;;3.70;2.65;;;;;;;3.15;100.00;96984.56;5071050;28;20043;-66
2020/12/29 00:14:32;;;;;;;6.13;2.30;;;;;;;3.20;100.00;96971.66;5071193;28;20078;-66
2020/12/29 00:17:16;;;;;;;5.10;2.20;;;;;;;3.27;100.00;96973.44;5071403;28;20035;-67
2020/12/29 00:20:00;;;;;;;1.85;1.45;;;;;;;3.44;100.00;96985.44;5071991;28;20570;-66
2020/12/29 00:22:44;;;;;;;;;;;;;;;3.43;100.00;96962.72;5071297;28;20051;-67
2020/12/29 00:25:28;;;;;;;1.55;1.45;;;;;;;3.50;100.00;96968.09;5071981;28;19920;-67
2020/12/29 00:28:12;;;;;;;1.58;1.17;;;;;;;3.56;100.00;96964.75;5072385;28;20138;-66
2020/12/29 00:30:55;;;;;;;1.63;1.20;;;;;;;3.60;100.00;96973.91;5072131;28;20444;-65
2020/12/29 00:33:40;;;;;;;1.85;0.98;;;;;;;3.67;100.00;96972.19;5071929;28;20436;-66
2020/12/29 00:36:25;;;;;;;1.15;0.75;;;;;;;3.79;100.00;96968.13;5070706;28;20098;-66
2020/12/29 00:39:09;;;;;;;2.55;0.93;;;;;;;3.79;100.00;96973.38;5070932;28;20545;-66
2020/12/29 00:41:54;;;;;;;1.00;0.60;;;;;;;3.90;100.00;96965.03;5074871;28;20059;-67
2020/12/29 00:44:38;;;;;;;2.10;0.73;;;;;;;3.94;100.00;96963.69;5075383;28;20533;-66
2020/12/29 00:47:22;;;;;;;0.75;0.50;;;;;;;3.97;100.00;96964.09;5075515;28;20048;-66
2020/12/29 00:50:06;;;;;;;0.73;0.60;;;;;;;4.08;100.00;96963.63;5074442;28;20194;-66
2020/12/29 00:52:51;;;;;;;0.45;0.45;;;;;;;4.05;100.00;96964.00;5075321;28;20117;-67
2020/12/29 00:55:36;;;;;;;0.57;0.40;;;;;;;4.17;100.00;96988.09;5074251;28;20133;-66
2020/12/29 00:58:20;;;;;;;0.73;0.57;;;;;;;4.19;100.00;96983.44;5060067;28;20082;-66
2020/12/29 01:01:04;;;;;;;;;;;;;;;4.21;100.00;96981.44;5075671;28;20044;-66
2020/12/29 01:03:48;;;;;;;1.27;0.57;;;;;;;4.27;100.00;96957.00;5073945;28;19919;-67
2020/12/29 01:06:32;;;;;;;1.35;0.40;;;;;;;4.33;100.00;96970.25;5075104;28;20127;-67
2020/12/29 01:09:17;;;;;;;0.57;0.50;;;;;;;4.38;100.00;96965.22;5075115;28;20131;-67
2020/12/29 01:12:01;;;;;;;1.02;0.60;;;;;;;4.41;100.00;96971.97;5074759;28;20047;-67
2020/12/29 01:14:45;;;;;;;0.73;0.40;;;;;;;4.40;100.00;96983.50;5073863;28;20050;-67
2020/12/29 01:17:29;;;;;;;0.43;0.40;;;;;;;4.43;100.00;96983.13;5074885;28;20056;-66
2020/12/29 01:20:13;;;;;;;0.63;0.50;;;;;;;4.46;100.00;96988.06;5074664;28;20074;-67
2020/12/29 01:22:57;;;;;;;1.10;0.63;;;;;;;4.46;100.00;96993.34;5073710;28;20145;-66
2020/12/29 01:25:45;;;;;;;0.25;0.25;;;;;;;4.49;100.00;96995.59;5059652;28;20043;-67
2020/12/29 01:28:28;;;;;;;1.33;0.63;;;;;;;4.57;100.00;96984.94;5074528;28;20132;-66
2020/12/29 01:31:12;;;;;;;5.82;0.47;;;;;;;4.68;100.00;97014.25;5073639;28;20381;-67
2020/12/29 01:33:58;;;;;;;1.33;0.43;;;;;;;4.68;100.00;97002.91;5074551;28;20401;-67
2020/12/29 01:36:42;;;;;;;0.43;0.38;;;;;;;4.72;100.00;97005.00;5059369;28;20048;-67
2020/12/29 01:39:25;;;;;;;1.25;0.43;;;;;;;4.81;100.00;96997.78;5059345;28;20113;-67
2020/12/29 01:42:10;;;;;;;2.15;0.85;;;;;;;4.78;100.00;97008.72;5074185;28;20121;-67
2020/12/29 01:44:55;;;;;;;0.88;0.40;;;;;;;4.76;100.00;96998.34;5073346;28;20051;-67
2020/12/29 01:47:40;;;;;;;0.73;0.40;;;;;;;4.82;100.00;97015.22;5074131;28;20044;-67
2020/12/29 01:50:25;;;;;;;0.98;0.57;;;;;;;4.85;100.00;97004.28;5074121;28;20067;-67
2020/12/29 01:53:09;;;;;;;0.35;0.25;;;;;;;4.79;100.00;96992.66;5072900;28;20127;-67
2020/12/29 01:55:53;;;;;;;0.60;0.30;;;;;;;4.78;100.00;96998.16;5073072;28;20132;-67
2020/12/29 01:58:37;;;;;;;0.40;0.35;;;;;;;4.71;100.00;97008.63;5072978;28;20420;-67
2020/12/29 02:01:21;;;;;;;0.70;0.38;;;;;;;4.70;100.00;97009.63;5073098;28;20060;-67
2020/12/29 02:04:09;;;;;;;0.20;0.20;;;;;;;4.67;100.00;97014.47;5060164;28;20052;-72
2020/12/29 02:06:53;;;;;;;2.03;0.30;;;;;;;4.66;100.00;97015.47;5058869;28;20042;-71
2020/12/29 02:09:38;;;;;;;0.88;0.47;;;;;;;4.63;100.00;97018.47;5074030;28;20420;-72
2020/12/29 02:12:26;;;;;;;0.10;0.10;;;;;;;4.64;100.00;97033.28;5073898;28;20051;-72
2020/12/29 02:15:10;;;;;;;0.43;0.30;;;;;;;4.66;100.00;97023.38;5073549;28;20077;-72
2020/12/29 02:17:55;;;;;;;1.58;0.55;;;;;;;4.63;100.00;97027.22;5073549;28;20047;-72
2020/12/29 02:20:38;;;;;;;0.52;0.40;;;;;;;4.67;100.00;97033.75;5073184;28;20101;-71
2020/12/29 02:23:22;;;;;;;1.33;0.50;;;;;;;4.67;100.00;97023.19;5072616;28;20432;-72
2020/12/29 02:26:06;;;;;;;2.78;0.40;;;;;;;4.69;100.00;97038.84;5072695;28;20408;-72
2020/12/29 02:28:50;;;;;;;0.60;0.40;;;;;;;4.70;100.00;97022.81;5073565;28;20046;-71
2020/12/29 02:31:34;;;;;;;;;;;;;;;4.73;100.00;97027.72;5045045;28;20106;-71
2020/12/29 02:34:18;;;;;;;0.80;0.67;;;;;;;4.73;100.00;97021.63;5072126;28;19942;-72
2020/12/29 02:37:07;;;;;;;0.20;0.20;;;;;;;4.78;100.00;97021.91;5072221;28;20051;-71
2020/12/29 02:39:52;;;;;;;1.75;0.63;;;;;;;4.78;100.00;97024.53;5072491;28;20468;-72
2020/12/29 02:42:36;;;;;;;0.77;0.43;;;;;;;4.83;100.00;97024.78;5072193;28;20102;-71
2020/12/29 02:45:20;;;;;;;0.73;0.50;;;;;;;4.88;100.00;97009.22;5072240;28;20097;-72
2020/12/29 02:48:04;;;;;;;1.10;0.63;;;;;;;4.93;100.00;97022.66;5072083;28;20051;-69
2020/12/29 02:50:49;;;;;;;0.52;0.52;;;;;;;4.91;100.00;97029.94;5072232;28;20077;-72
2020/12/29 02:53:33;;;;;;;0.50;0.30;;;;;;;4.97;100.00;97022.94;5072971;28;20051;-71
2020/12/29 02:56:20;;;;;;;0.98;0.68;;;;;;;5.02;100.00;97023.16;5071939;28;20047;-71
2020/12/29 02:59:04;;;;;;;0.98;0.50;;;;;;;5.05;100.00;97033.34;5073005;28;20051;-71
2020/12/29 03:01:48;;;;;;;0.45;0.45;;;;;;;5.13;100.00;97038.50;5071956;28;20512;-72
2020/12/29 03:04:32;;;;;;;0.90;0.57;;;;;;;5.23;100.00;97032.94;5070995;28;20043;-72
2020/12/29 03:07:16;;;;;;;0.30;0.30;;;;;;;5.30;100.00;97021.41;5071973;28;20051;-71
2020/12/29 03:10:00;;;;;;;2.30;0.60;;;;;;;5.25;100.00;97026.44;5072884;28;20075;-71
2020/12/29 03:12:44;;;;;;;0.30;0.30;;;;;;;5.24;100.00;97067.03;5072672;28;20126;-72
2020/12/29 03:15:28;;;;;;;1.13;0.40;;;;;;;5.30;100.00;97042.53;5071808;28;20063;-71
2020/12/29 03:18:12;;;;;;;2.22;0.30;;;;;;;5.22;100.00;97050.59;5072823;28;20048;-71
2020/12/29 03:20:55;;;;;;;0.98;0.30;;;;;;;5.17;100.00;97052.97;5072574;28;20047;-70
2020/12/29 03:23:40;;;;;;;1.23;0.47;;;;;;;5.05;100.00;97054.47;5057450;28;20424;-70
2020/12/29 03:26:25;;;;;;;0.45;0.20;;;;;;;4.95;100.00;97056.59;5072496;28;20039;-70
2020/12/29 03:29:09;;;;;;;0.35;0.25;;;;;;;4.90;100.00;97086.38;5073011;28;20059;-70
2020/12/29 03:31:53;;;;;;;0.65;0.30;;;;;;;4.82;100.00;97081.19;5071426;28;20109;-70
2020/12/29 03:34:37;;;;;;;0.60;0.20;;;;;;;4.77;100.00;97096.78;5071611;28;20106;-69
2020/12/29 03:37:21;;;;;;;0.30;0.30;;;;;;;4.70;100.00;97074.78;5071638;28;20455;-69
2020/12/29 03:40:05;;;;;;;0.57;0.28;;;;;;;4.68;100.00;97108.44;5072719;28;20119;-69
2020/12/29 03:42:49;;;;;;;0.30;0.30;;;;;;;4.62;100.00;97093.31;5071345;28;20046;-69
2020/12/29 03:45:33;;;;;;;2.30;0.50;;;;;;;4.60;100.00;97090.91;5071556;28;20046;-70
2020/12/29 03:48:22;;;;;;;0.40;0.30;;;;;;;4.62;100.00;97109.16;5071582;28;20366;-70
2020/12/29 03:51:06;;;;;;;0.68;0.40;;;;;;;4.61;100.00;97087.25;5071528;28;20495;-69
2020/12/29 03:53:50;;;;;;;1.40;0.43;;;;;;;4.59;100.00;97102.41;5071203;28;20193;-69
2020/12/29 03:56:34;;;;;;;1.60;0.52;;;;;;;4.56;100.00;97107.25;5072383;28;20066;-69
2020/12/29 03:59:18;;;;;;;3.03;0.55;;;;;;;4.55;100.00;97103.78;5071421;28;20098;-69
2020/12/29 04:02:02;;;;;;;2.10;0.40;;;;;;;4.56;100.00;97121.25;5071072;28;20132;-68
2020/12/29 04:04:45;;;;;;;1.42;0.55;;;;;;;4.55;100.00;97124.91;5072062;28;20101;-69
2020/12/29 04:07:29;;;;;;;;;;;;;;;4.53;100.00;97112.88;5072509;28;20052;-69
2020/12/29 04:10:14;;;;;;;4.03;0.52;;;;;;;4.52;100.00;97129.72;5071106;28;20001;-69
2020/12/29 04:12:58;;;;;;;1.65;0.50;;;;;;;4.53;100.00;97140.09;5072275;28;20137;-70
2020/12/29 04:15:42;;;;;;;1.40;0.57;;;;;;;4.54;100.00;97140.91;5073658;28;20075;-69
2020/12/29 04:18:26;;;;;;;2.15;1.10;;;;;;;4.51;100.00;97181.66;5074949;28;20103;-70
2020/12/29 04:21:11;;;;;;;0.73;0.40;;;;;;;4.34;100.00;97187.25;5074946;28;20070;-69
2020/12/29 04:23:55;;;;;;;0.20;0.20;;;;;;;3.54;100.00;97238.78;5074728;28;20507;-71
2020/12/29 04:26:39;;;;;;;0.82;0.17;;;;;;;2.59;100.00;97218.94;5074657;28;20047;-71
2020/12/29 04:29:23;;;;;;;0.10;0.10;;;;;;;2.07;100.00;97238.72;5074798;28;20424;-71
2020/12/29 04:32:07;;;;;;;0.17;0.17;;;;;;;1.92;100.00;97240.38;5074727;28;20055;-71
2020/12/29 04:34:52;;;;;;;0.55;0.20;;;;;;;1.76;100.00;97234.31;5075449;28;20090;-70
2020/12/29 04:37:36;;;;;;;0.13;0.13;;;;;;;1.67;100.00;97251.84;5075765;28;20035;-70
2020/12/29 04:40:19;;;;;;;;;;;;;;;1.60;100.00;97265.78;5075020;28;20071;-70
2020/12/29 04:43:03;;;;;;;0.20;0.20;;;;;;;1.51;100.00;97257.06;5074526;28;19920;-70
2020/12/29 04:45:48;;;;;;;0.10;0.10;;;;;;;1.46;100.00;97263.78;5075587;28;20151;-70
2020/12/29 04:48:32;;;;;;;0.10;0.10;;;;;;;1.41;100.00;97261.63;5075990;28;20147;-70
2020/12/29 04:51:17;;;;;;;0.10;0.10;;;;;;;1.43;100.00;97269.31;5075264;28;20102;-70
2020/12/29 04:54:01;;;;;;;;;;;;;;;1.46;100.00;97282.16;5075655;28;20460;-70
2020/12/29 04:56:54;;;;;;;0.20;0.20;;;;;;;1.50;100.00;97275.59;5074280;28;19938;-71
2020/12/29 04:59:38;;;;;;;0.17;0.17;;;;;;;1.54;100.00;97288.22;5074070;28;20516;-71
2020/12/29 05:02:22;;;;;;;0.85;0.28;;;;;;;1.57;100.00;97293.16;5074129;28;20292;-70
2020/12/29 05:05:06;;;;;;;;;;;;;;;1.63;100.00;97305.66;5075262;28;20094;-70
2020/12/29 05:07:51;;;;;;;0.10;0.10;;;;;;;1.65;100.00;97305.50;5073929;28;20008;-70
2020/12/29 05:10:45;;;;;;;0.20;0.20;;;;;;;1.69;100.00;97296.31;5075159;28;20050;-68
2020/12/29 05:13:29;;;;;;;0.40;0.30;;;;;;;1.74;100.00;97315.84;5074894;28;20408;-70
2020/12/29 05:16:13;;;;;;;;;;;;;;;1.76;100.00;97313.88;5074015;28;20055;-70
2020/12/29 05:18:57;;;;;;;0.22;0.22;;;;;;;1.76;100.00;97329.63;5073885;28;20005;-70
2020/12/29 05:21:42;;;;;;;0.20;0.20;;;;;;;1.78;100.00;97330.28;5073593;28;20047;-70
2020/12/29 05:24:26;;;;;;;0.40;0.20;;;;;;;1.80;100.00;97330.97;5073738;28;20089;-70
2020/12/29 05:27:10;;;;;;;0.28;0.28;;;;;;;1.81;100.00;97327.38;5072800;28;20566;-70
2020/12/29 05:29:55;;;;;;;0.43;0.30;;;;;;;1.86;100.00;97346.06;5073946;28;20074;-69
2020/12/29 05:32:39;;;;;;;0.20;0.20;;;;;;;1.89;100.00;97364.16;5073675;28;20412;-70
2020/12/29 05:35:24;;;;;;;0.20;0.20;;;;;;;1.90;100.00;97378.94;5073257;28;20043;-70
2020/12/29 05:38:08;;;;;;;0.30;0.30;;;;;;;1.90;100.00;97363.19;5074388;28;20048;-70
2020/12/29 05:40:52;;;;;;;0.20;0.20;;;;;;;1.89;100.00;97366.78;5059168;28;20051;-70
2020/12/29 05:43:36;;;;;;;0.22;0.22;;;;;;;1.89;100.00;97393.06;5073374;28;20055;-70
2020/12/29 05:46:26;;;;;;;0.63;0.35;;;;;;;1.90;100.00;97391.22;5059048;28;20051;-71
2020/12/29 05:49:10;;;;;;;0.43;0.40;;;;;;;1.87;100.00;97402.88;5073301;28;20570;-70
2020/12/29 05:51:56;;;;;;;0.70;0.45;;;;;;;1.91;100.00;97391.09;5074301;28;20047;-71
2020/12/29 05:54:40;;;;;;;0.50;0.50;;;;;;;1.91;100.00;97391.09;5073985;28;20423;-71
2020/12/29 05:57:24;;;;;;;;;;;;;;;1.95;100.00;97408.16;5073337;28;20044;-71
2020/12/29 06:00:08;;;;;;;0.40;0.40;;;;;;;1.93;100.00;97402.25;5073998;28;20114;-71
2020/12/29 06:02:55;;;;;;;0.30;0.30;;;;;;;1.94;100.00;97417.03;5072642;28;20677;-71
2020/12/29 06:05:39;;;;;;;0.50;0.50;;;;;;;1.97;100.00;97427.19;5072920;28;20047;-70
2020/12/29 06:08:26;;;;;;;0.85;0.65;;;;;;;2.01;100.00;97449.56;5072868;28;20139;-70
2020/12/29 06:11:14;;;;;;;0.75;0.52;;;;;;;2.03;100.00;97436.25;5072823;28;20056;-70
2020/12/29 06:14:01;;;;;;;0.70;0.70;;;;;;;2.06;100.00;97443.81;5072668;28;20512;-70
2020/12/29 06:16:45;;;;;;;0.60;0.60;;;;;;;2.06;100.00;97464.84;5072656;28;20055;-70
2020/12/29 06:19:30;;;;;;;0.38;0.38;;;;;;;2.04;100.00;97470.25;5073667;28;20365;-71
2020/12/29 06:22:15;;;;;;;0.68;0.68;;;;;;;2.03;100.00;97476.47;5073707;28;20052;-70
2020/12/29 06:25:01;;;;;;;0.70;0.70;;;;;;;2.04;100.00;97493.06;5072512;28;20047;-70
2020/12/29 06:27:52;;;;;;;0.60;0.60;;;;;;;2.03;100.00;97481.75;5073574;28;20127;-70
2020/12/29 06:30:36;;;;;;;0.43;0.43;;;;;;;2.01;100.00;97506.50;5072433;28;20054;-70
2020/12/29 06:33:20;;;;;;;0.70;0.70;;;;;;;2.00;100.00;97502.25;5072177;28;20105;-70
2020/12/29 06:36:06;;;;;;;0.90;0.73;;;;;;;2.02;100.00;97523.91;5073107;28;20051;-70
2020/12/29 06:38:52;;;;;;;0.90;0.90;;;;;;;2.00;100.00;97546.91;5073016;28;20207;-70
2020/12/29 06:41:36;;;;;;;1.02;0.60;;;;;;;2.04;100.00;97563.97;5072301;28;20219;-71
2020/12/29 06:44:20;;;;;;;1.00;0.90;;;;;;;2.05;100.00;97555.97;5073218;28;20139;-70
2020/12/29 06:47:07;;;;;;;;;;;;;;;2.07;100.00;97574.22;5073700;28;20064;-69
2020/12/29 06:49:54;;;;;;;1.00;0.90;;;;;;;2.12;100.00;97592.94;5072448;28;19919;-70
2020/12/29 06:52:39;;;;;;;0.82;0.82;;;;;;;2.13;100.00;97600.66;5072014;28;20051;-70
2020/12/29 06:55:23;;;;;;;0.80;0.77;;;;;;;2.16;100.00;97595.09;5073313;28;20162;-70
2020/12/29 06:58:07;;;;;;;1.00;0.90;;;;;;;2.18;100.00;97605.47;5072046;28;20098;-70
2020/12/29 07:00:51;;;;;;;0.73;0.73;;;;;;;2.17;100.00;97628.28;5072813;28;20043;-70
2020/12/29 07:03:34;;;;;;;0.85;0.60;;;;;;;2.20;100.00;97616.63;5072727;28;20043;-70
2020/12/29 07:06:27;;;;;;;0.93;0.73;;;;;;;2.19;100.00;97628.94;5071926;28;20047;-70
2020/12/29 07:09:11;;;;;;;1.33;0.70;;;;;;;2.21;100.00;97645.41;5073055;28;20486;-70
2020/12/29 07:12:03;;;;;;;0.50;0.50;;;;;;;2.23;100.00;97634.72;5072906;28;20106;-69
2020/12/29 07:14:52;;;;;;;0.80;0.60;;;;;;;2.25;100.00;97645.88;5072636;28;20132;-70
2020/12/29 07:17:36;;;;;;;1.20;0.43;;;;;;;2.27;100.00;97650.00;5071832;28;20131;-70
2020/12/29 07:20:22;;;;;;;0.50;0.50;;;;;;;2.26;100.00;97673.84;5071648;28;20054;-71
2020/12/29 07:23:07;;;;;;;0.50;0.50;;;;;;;2.28;100.00;97656.91;5071714;28;20047;-70
2020/12/29 07:25:53;;;;;;;0.60;0.40;;;;;;;2.32;100.00;97671.41;5071541;28;20090;-71
2020/12/29 07:28:39;;;;;;;0.68;0.68;;;;;;;2.34;100.00;97672.06;5071593;28;20094;-70
2020/12/29 07:31:23;;;;;;;0.70;0.70;;;;;;;2.36;100.00;97675.38;5072821;28;20105;-70
2020/12/29 07:34:13;;;;;;;0.60;0.60;;;;;;;2.41;100.00;97695.94;5072404;28;20046;-70
2020/12/29 07:36:58;;;;;;;0.38;0.38;;;;;;;2.40;100.00;97702.19;5071536;28;20043;-69
2020/12/29 07:39:44;;;;;;;0.70;0.70;;;;;;;2.42;100.00;97701.84;5072290;28;20417;-70
2020/12/29 07:42:28;;;;;;;0.70;0.70;;;;;;;2.43;100.00;97700.06;5071478;28;20097;-70
2020/12/29 07:45:12;;;;;;;0.65;0.65;;;;;;;2.46;100.00;97707.63;5072258;28;20051;-70
2020/12/29 07:48:00;;;;;;;0.75;0.55;;;;;;;2.52;100.00;97739.38;5072391;28;20148;-70
2020/12/29 07:50:44;;;;;;;0.50;0.50;;;;;;;2.53;100.00;97737.59;5074587;28;20377;-70
2020/12/29 07:53:29;;;;;;;0.52;0.52;;;;;;;2.56;100.00;97735.47;5076398;28;20042;-69
2020/12/29 07:56:13;;;;;;;0.63;0.60;;;;;;;2.58;100.00;97743.19;5075093;28;20532;-69
2020/12/29 07:59:08;;;;;;;1.08;0.82;;;;;;;2.61;100.00;97775.25;5075488;28;20184;-69
2020/12/29 08:01:54;;;;;;;1.10;0.95;;;;;;;2.61;100.00;97758.69;5061125;28;20048;-70
2020/12/29 08:04:38;;;;;;;0.70;0.70;;;;;;;2.62;100.00;97778.75;5077513;28;20052;-70
2020/12/29 08:07:22;;;;;;;0.70;0.70;;;;;;;2.65;100.00;97781.03;5076176;28;20051;-70
2020/12/29 08:10:06;;;;;;;0.60;0.60;;;;;;;2.68;100.00;97796.50;5076023;28;20047;-70
2020/12/29 08:12:55;;;;;;;2.78;0.80;;;;;;;2.70;100.00;97784.84;5075036;28;20058;-70
2020/12/29 08:15:43;;;;;;;0.82;0.82;;;;;;;2.75;100.00;97797.53;5076027;28;20508;-69
2020/12/29 08:18:27;;;;;;;1.58;1.08;;;;;;;2.74;100.00;97807.22;5074717;28;20051;-70
2020/12/29 08:21:11;;;;;;;1.25;0.98;;;;;;;2.81;100.00;97817.94;5074972;28;20400;-70
2020/12/29 08:23:57;;;;;;;0.70;0.70;;;;;;;2.86;100.00;97823.59;5074764;28;20047;-69
2020/12/29 08:26:40;;;;;;;0.55;0.55;;;;;;;2.88;100.00;97825.09;5075871;28;20554;-71
2020/12/29 08:29:25;;;;;;;0.77;0.70;;;;;;;2.93;100.00;97832.53;5074571;28;20055;-71
2020/12/29 08:32:10;;;;;;;0.70;0.70;;;;;;;2.96;100.00;97843.56;5075681;28;20043;-71
2020/12/29 08:34:55;;;;;;;1.17;0.57;;;;;;;3.02;100.00;97850.00;5060262;28;20482;-71
2020/12/29 08:37:54;;;;;;;0.70;0.70;;;;;;;3.12;100.00;97858.63;5075664;28;20048;-70
2020/12/29 08:40:47;;;;;;;0.93;0.80;;;;;;;3.22;100.00;97852.25;5075338;28;20052;-71
2020/12/29 08:43:38;;;;;;;2.47;0.80;;;;;;;3.30;100.00;97872.53;5074431;28;20524;-70
2020/12/29 08:46:24;;;;;;;0.60;0.60;;;;;;;3.26;100.00;97876.47;5074240;28;20090;-70
2020/12/29 08:49:08;;;;;;;0.73;0.70;;;;;;;3.26;100.00;97895.69;5060032;28;20153;-68
2020/12/29 08:51:52;;;;;;;0.77;0.77;;;;;;;3.29;100.00;97915.63;5075582;28;20511;-70
2020/12/29 08:54:39;;;;;;;0.90;0.80;;;;;;;3.31;100.00;97932.09;5059946;28;20131;-68
2020/12/29 08:57:26;;;;;;;0.55;0.50;;;;;;;3.28;100.00;97924.50;5074102;28;20047;-71
2020/12/29 09:00:10;;;;;;;1.08;0.90;;;;;;;3.36;100.00;97940.38;5075241;28;20219;-69
2020/12/29 09:02:54;;;;;;;0.80;0.70;;;;;;;3.37;100.00;97957.81;5073151;28;20421;-70
2020/12/29 09:05:44;;;;;;;0.98;0.90;;;;;;;3.35;100.00;97963.22;5074985;28;20126;-69
2020/12/29 09:08:29;;;;;;;0.80;0.80;;;;;;;3.36;100.00;97964.06;5075144;28;20090;-71
2020/12/29 09:11:14;;;;;;;0.80;0.70;;;;;;;3.38;100.00;97986.63;5073938;28;20558;-69
2020/12/29 09:14:04;;;;;;;1.15;1.05;;;;;;;3.44;100.00;97974.66;5059803;28;20106;-70
2020/12/29 09:17:05;;;;;;;0.63;0.63;;;;;;;3.51;100.00;97983.56;5074879;28;20094;-69
2020/12/29 09:20:18;;;;;;;1.45;1.10;;;;;;;3.58;100.00;97992.50;5073595;28;20573;-69
2020/12/29 09:23:12;;;;;;;0.38;0.38;;;;;;;3.67;100.00;98002.13;5074665;28;20039;-69
2020/12/29 09:25:57;;;;;;;0.93;0.70;;;;;;;3.69;100.00;98000.16;5074752;28;20566;-69
2020/12/29 09:28:41;;;;;;;0.82;0.68;;;;;;;3.73;100.00;98019.91;5073622;28;20047;-69
2020/12/29 09:31:26;;;;;;;0.93;0.80;;;;;;;3.73;100.00;98018.13;5074669;28;20097;-69
2020/12/29 09:34:10;;;;;;;1.13;1.02;;;;;;;3.76;100.00;98024.91;5073311;28;20086;-69
2020/12/29 09:36:54;;;;;;;0.70;0.70;;;;;;;3.75;100.00;98037.22;5073428;28;20135;-70
2020/12/29 09:39:38;;;;;;;0.93;0.82;;;;;;;3.83;100.00;98045.19;5073446;28;20047;-69
2020/12/29 09:42:23;;;;;;;0.80;0.70;;;;;;;3.87;100.00;98050.97;5074234;28;20397;-69
2020/12/29 09:45:07;;;;;;;1.25;1.00;;;;;;;3.97;100.00;98044.59;5073377;28;20097;-71
2020/12/29 09:47:51;;;;;;;0.95;0.80;;;;;;;4.17;100.00;98055.75;5059133;28;20142;-69
2020/12/29 09:50:35;;;;;;;1.05;0.93;;;;;;;4.29;100.00;98067.69;5074304;28;20504;-72
2020/12/29 09:53:20;;;;;;;1.67;1.05;;;;;;;4.26;100.00;98068.81;5074598;28;20487;-71
2020/12/29 09:56:04;;;;;;;1.30;1.20;;;;;;;4.29;100.00;98073.75;5073210;28;20528;-68
2020/12/29 09:58:48;;;;;;;2.08;1.40;;;;;;;4.33;100.00;98083.03;5073927;28;20554;-70
2020/12/29 10:01:32;;;;;;;1.83;1.33;;;;;;;4.36;100.00;98103.00;5073017;28;20121;-71
2020/12/29 10:04:16;;;;;;;0.75;0.68;;;;;;;4.25;100.00;98108.53;5072820;28;20085;-71
2020/12/29 10:07:00;;;;;;;1.20;1.10;;;;;;;4.19;100.00;98111.78;5072984;28;20097;-71
2020/12/29 10:09:44;;;;;;;2.33;1.20;;;;;;;4.23;100.00;98110.47;5044412;28;20083;-71
2020/12/29 10:12:28;;;;;;;1.70;1.60;;;;;;;4.24;100.00;98112.13;5072654;28;20051;-71
2020/12/29 10:15:12;;;;;;;1.65;1.55;;;;;;;4.37;100.00;98108.09;5072673;28;20055;-71
2020/12/29 10:17:56;;;;;;;1.55;1.42;;;;;;;4.35;99.82;98119.81;5058532;28;20051;-70
2020/12/29 10:20:40;;;;;;;1.58;1.08;;;;;;;4.36;99.46;98121.47;5072560;28;20131;-71
2020/12/29 10:23:25;;;;;;;;;;;;;;;4.44;98.79;98132.03;5072921;28;20103;-69
2020/12/29 10:26:09;;;;;;;2.50;1.75;;;;;;;4.47;98.35;98123.81;5072354;28;19979;-71
2020/12/29 10:28:52;;;;;;;1.80;1.25;;;;;;;4.48;98.27;98146.56;5073431;28;20093;-71
2020/12/29 10:31:37;;;;;;;2.25;1.77;;;;;;;4.55;99.91;98131.75;5072402;28;20508;-71
2020/12/29 10:34:21;;;;;;;2.88;1.73;;;;;;;4.66;97.50;98134.94;5072314;28;20570;-69
2020/12/29 10:37:10;;;;;;;2.03;1.45;;;;;;;4.83;97.37;98149.88;5044044;28;20051;-69
2020/12/29 10:39:54;;;;;;;2.08;1.65;;;;;;;5.06;96.08;98154.41;5073319;28;20039;-71
2020/12/29 10:42:38;;;;;;;2.13;1.45;;;;;;;5.48;93.59;98152.50;5073084;28;20525;-71
2020/12/29 10:45:22;;;;;;;1.80;1.63;;;;;;;5.56;91.42;98152.50;5073045;28;20048;-71
2020/12/29 10:48:06;;;;;;;2.10;0.90;;;;;;;5.72;91.23;98157.81;5073196;28;20513;-70
2020/12/29 10:50:50;;;;;;;1.48;1.38;;;;;;;5.73;89.85;98164.72;5072138;28;20106;-71
2020/12/29 10:53:33;;;;;;;1.35;1.25;;;;;;;5.69;90.02;98174.00;5073370;28;20047;-71
2020/12/29 10:56:18;;;;;;;2.20;1.13;;;;;;;5.72;89.74;98176.31;5071669;28;20424;-71
2020/12/29 10:59:03;;;;;;;2.15;0.65;;;;;;;5.39;91.04;98176.41;5073258;28;20468;-71
2020/12/29 11:01:47;;;;;;;2.42;1.30;;;;;;;5.36;92.83;98185.47;5071709;28;20048;-71
2020/12/29 11:04:31;;;;;;;2.45;1.30;;;;;;;5.36;93.15;98188.13;5072578;28;20098;-71
2020/12/29 11:07:15;;;;;;;0.90;0.68;;;;;;;5.30;90.63;98191.44;5071671;28;20121;-71
2020/12/29 11:09:59;;;;;;;3.35;1.60;;;;;;;5.26;93.07;98198.03;5071863;28;20071;-71
2020/12/29 11:12:43;;;;;;;2.38;1.42;;;;;;;5.23;92.34;98203.63;5072805;28;20102;-70
2020/12/29 11:15:27;;;;;;;4.90;1.40;;;;;;;5.22;90.98;98201.97;5072807;28;20052;-71
2020/12/29 11:18:12;;;;;;;2.08;1.33;;;;;;;5.13;91.37;98213.50;5072621;28;20063;-71
2020/12/29 11:20:56;;;;;;;3.20;1.25;;;;;;;5.08;91.28;98209.69;5071492;28;20464;-70
2020/12/29 11:23:40;;;;;;;2.83;1.27;;;;;;;5.13;90.07;98207.41;5057403;28;20139;-71
2020/12/29 11:26:24;;;;;;;2.90;1.20;;;;;;;5.25;89.56;98201.63;5072873;28;20043;-71
2020/12/29 11:29:09;;;;;;;5.68;1.20;;;;;;;5.35;88.26;98207.59;5071586;28;20162;-71
2020/12/29 11:31:53;;;;;;;9.55;1.45;;;;;;;5.23;87.83;98198.34;5072915;28;20055;-69
2020/12/29 11:34:37;;;;;;;1.40;0.60;;;;;;;5.27;86.28;98207.59;5057179;28;20071;-71
2020/12/29 11:37:21;;;;;;;4.90;1.40;;;;;;;5.36;88.16;98214.53;5057405;28;20136;-71
2020/12/29 11:40:05;;;;;;;2.35;1.00;;;;;;;5.39;86.21;98208.97;5071407;28;20090;-71
2020/12/29 11:42:49;;;;;;;2.15;0.90;;;;;;;5.49;84.88;98199.06;5072669;28;20556;-71
2020/12/29 11:45:33;;;;;;;2.75;0.73;;;;;;;5.53;83.93;98205.69;5071634;28;20064;-71
2020/12/29 11:48:17;;;;;;;1.42;0.80;;;;;;;5.65;83.15;98214.94;5072362;28;20104;-71
2020/12/29 11:51:02;;;;;;;1.52;1.08;;;;;;;5.75;84.30;98201.59;5057632;28;20075;-71
2020/12/29 11:53:46;;;;;;;2.38;1.63;;;;;;;5.87;85.11;98203.75;5071601;28;20047;-71
2020/12/29 11:56:30;;;;;;;1.98;0.90;;;;;;;5.58;85.39;98218.41;5072454;28;20163;-71
2020/12/29 11:59:14;;;;;;;2.63;0.98;;;;;;;5.55;85.67;98219.53;5071069;28;20055;-72
2020/12/29 12:01:59;;;;;;;2.85;1.00;;;;;;;5.59;86.78;98220.91;5071373;28;20110;-71
2020/12/29 12:04:42;;;;;;;1.52;1.00;;;;;;;5.57;85.96;98237.91;5072019;28;20051;-71
2020/12/29 12:07:26;;;;;;;2.78;1.02;;;;;;;5.59;85.87;98223.53;5057242;28;20510;-71
2020/12/29 12:10:12;;;;;;;3.47;1.02;;;;;;;5.62;85.58;98219.72;5071355;28;20047;-71
2020/12/29 12:12:56;;;;;;;1.38;0.93;;;;;;;5.61;84.92;98233.94;5072307;28;20102;-72
2020/12/29 12:15:41;;;;;;;1.70;0.93;;;;;;;5.52;86.04;98230.44;5072058;28;20102;-71
2020/12/29 12:18:25;;;;;;;1.55;1.02;;;;;;;5.67;83.47;98233.28;5071266;28;20067;-71
2020/12/29 12:21:09;;;;;;;2.00;1.27;;;;;;;6.14;81.96;98234.38;5070998;28;20123;-71
2020/12/29 12:23:52;;;;;;;2.28;1.10;;;;;;;6.87;77.73;98230.63;5070989;28;20055;-71
2020/12/29 12:26:36;;;;;;;1.60;0.90;;;;;;;6.76;76.86;98223.84;5071322;28;20044;-71
2020/12/29 12:29:20;;;;;;;1.35;0.45;;;;;;;6.21;77.54;98243.28;5070908;28;20659;-71
2020/12/29 12:32:04;;;;;;;2.25;1.00;;;;;;;6.15;79.48;98243.97;5071931;28;20046;-72
2020/12/29 12:34:48;;;;;;;1.83;0.88;;;;;;;6.03;80.04;98245.25;5070994;28;20173;-71
2020/12/29 12:37:32;;;;;;;3.50;1.20;;;;;;;6.18;79.84;98244.44;5074405;28;20047;-72
2020/12/29 12:40:16;;;;;;;2.13;0.95;;;;;;;6.11;79.89;98248.75;5074813;28;20097;-71
2020/12/29 12:43:00;;;;;;;3.03;1.35;;;;;;;6.02;80.36;98255.03;5075417;28;20512;-71
2020/12/29 12:45:44;;;;;;;2.78;1.08;;;;;;;6.15;82.24;98249.25;5060613;28;20134;-72
2020/12/29 12:48:28;;;;;;;1.58;1.17;;;;;;;6.10;82.14;98255.03;5075475;28;20094;-71
2020/12/29 12:51:13;;;;;;;3.38;1.20;;;;;;;6.06;81.49;98272.19;5075445;28;20043;-72
2020/12/29 12:53:57;;;;;;;1.83;1.20;;;;;;;5.96;82.62;98260.94;5074728;28;20047;-72
2020/12/29 12:56:44;;;;;;;1.42;0.93;;;;;;;5.89;83.01;98264.41;5074225;28;20060;-72
2020/12/29 12:59:28;;;;;;;1.88;1.05;;;;;;;5.79;83.58;98275.16;5074207;28;20113;-72